createdAt,value
2023-05-10T00:01:35.227Z,51.51
2023-05-10T00:04:02.262Z,51.30
2023-05-10T00:06:29.364Z,51.20
2023-05-10T00:08:56.496Z,51.26
2023-05-10T00:11:23.454Z,51.21
2023-05-10T00:13:50.503Z,51.21
2023-05-10T00:16:17.514Z,51.27
2023-05-10T00:18:44.496Z,51.28
2023-05-10T00:21:11.543Z,51.20
2023-05-10T00:23:38.753Z,51.24
2023-05-10T00:26:05.827Z,50.84
2023-05-10T00:28:32.791Z,50.70
2023-05-10T00:30:59.773Z,50.69
2023-05-10T00:33:26.887Z,50.69
2023-05-10T00:35:53.932Z,50.73
2023-05-10T00:38:20.880Z,50.74
2023-05-10T00:40:47.835Z,50.75
2023-05-10T00:43:20.926Z,50.79
2023-05-10T00:45:48.369Z,50.90
2023-05-10T00:48:15.456Z,50.99
2023-05-10T00:50:42.495Z,50.84
2023-05-10T00:53:09.970Z,50.75
2023-05-10T00:55:37.189Z,50.72
2023-05-10T00:58:04.590Z,50.76
2023-05-10T01:00:31.609Z,50.73
2023-05-10T01:02:58.657Z,50.67
2023-05-10T01:05:25.824Z,50.82
2023-05-10T01:07:52.813Z,50.82
2023-05-10T01:10:19.955Z,50.64
2023-05-10T01:12:47.828Z,50.55
2023-05-10T01:15:15.706Z,50.88
2023-05-10T01:17:43.916Z,51.03
2023-05-10T01:20:11.244Z,51.11
2023-05-10T01:23:00.308Z,51.02
2023-05-10T01:25:34.298Z,50.89
2023-05-10T01:28:15.419Z,50.86
2023-05-10T01:30:54.516Z,50.76
2023-05-10T01:33:26.304Z,50.76
2023-05-10T01:35:58.751Z,50.86
2023-05-10T01:39:04.766Z,50.92
2023-05-10T01:42:10.897Z,51.20
2023-05-10T01:44:58.772Z,51.14
2023-05-10T01:47:45.052Z,51.25
2023-05-10T01:50:20.505Z,51.33
2023-05-10T01:52:51.572Z,51.60
2023-05-10T01:55:19.899Z,51.73
2023-05-10T01:57:47.663Z,51.75
2023-05-10T02:00:15.035Z,51.70
2023-05-10T02:02:44.326Z,51.89
2023-05-10T02:05:12.007Z,52.07
2023-05-10T02:07:39.066Z,52.27
2023-05-10T02:10:09.032Z,52.44
2023-05-10T02:12:47.276Z,52.77
2023-05-10T02:15:16.773Z,53.14
2023-05-10T02:17:44.827Z,53.52
2023-05-10T02:20:11.994Z,53.76
2023-05-10T02:22:39.255Z,54.01
2023-05-10T02:25:06.666Z,54.22
2023-05-10T02:27:33.654Z,54.44
2023-05-10T02:30:00.760Z,54.68
2023-05-10T02:32:28.162Z,54.84
2023-05-10T02:34:55.128Z,54.95
2023-05-10T02:37:22.175Z,55.26
2023-05-10T02:39:49.975Z,55.40
2023-05-10T02:42:20.922Z,55.58
2023-05-10T02:44:49.220Z,55.64
2023-05-10T02:47:16.261Z,55.78
2023-05-10T02:49:43.379Z,55.84
2023-05-10T02:52:10.373Z,55.80
2023-05-10T02:54:47.011Z,55.64
2023-05-10T02:57:19.280Z,55.56
2023-05-10T02:59:46.575Z,55.45
2023-05-10T03:02:13.950Z,55.27
2023-05-10T03:04:40.964Z,55.23
2023-05-10T03:07:08.281Z,55.31
2023-05-10T03:09:35.645Z,55.23
2023-05-10T03:12:03.287Z,55.26
2023-05-10T03:14:33.391Z,55.25
2023-05-10T03:17:06.073Z,55.15
2023-05-10T03:19:57.414Z,55.10
2023-05-10T03:22:32.219Z,55.14
2023-05-10T03:24:59.180Z,55.26
2023-05-10T03:27:28.441Z,55.39
2023-05-10T03:29:56.439Z,55.38
2023-05-10T03:32:23.928Z,55.64
2023-05-10T03:34:51.067Z,55.95
2023-05-10T03:37:18.061Z,56.08
2023-05-10T03:39:45.069Z,56.34
2023-05-10T03:42:13.103Z,56.49
2023-05-10T03:44:40.900Z,56.50
2023-05-10T03:47:07.996Z,56.30
2023-05-10T03:49:35.161Z,56.15
2023-05-10T03:52:02.644Z,56.14
2023-05-10T03:54:29.602Z,56.19
2023-05-10T03:56:56.546Z,56.24
2023-05-10T03:59:23.848Z,56.02
2023-05-10T04:01:52.106Z,55.41
2023-05-10T04:04:19.955Z,55.00
2023-05-10T04:06:48.754Z,54.75
2023-05-10T04:09:16.080Z,54.52
2023-05-10T04:11:43.110Z,54.34
2023-05-10T04:14:10.207Z,54.16
2023-05-10T04:16:37.206Z,53.93
2023-05-10T04:19:04.882Z,53.59
2023-05-10T04:21:32.036Z,53.20
2023-05-10T04:23:59.023Z,53.10
2023-05-10T04:26:26.740Z,52.58
2023-05-10T04:28:53.686Z,52.43
2023-05-10T04:31:20.791Z,52.12
2023-05-10T04:33:47.766Z,52.07
2023-05-10T04:36:14.709Z,51.87
2023-05-10T04:38:41.769Z,51.19
2023-05-10T04:41:09.384Z,50.75
2023-05-10T04:43:36.558Z,49.80
2023-05-10T04:46:03.827Z,49.54
2023-05-10T04:48:30.959Z,49.21
2023-05-10T04:50:58.072Z,48.86
2023-05-10T04:53:25.015Z,48.71
2023-05-10T04:55:51.949Z,48.30
2023-05-10T04:58:18.908Z,48.33
2023-05-10T05:00:45.901Z,48.12
2023-05-10T05:03:12.928Z,48.17
2023-05-10T05:05:40.023Z,47.98
2023-05-10T05:08:07.027Z,47.54
2023-05-10T05:10:33.976Z,47.65
2023-05-10T05:13:01.110Z,47.75
2023-05-10T05:15:28.528Z,47.77
2023-05-10T05:17:55.597Z,47.56
2023-05-10T05:20:22.625Z,47.31
2023-05-10T05:22:49.575Z,47.42
2023-05-10T05:25:17.040Z,47.44
2023-05-10T05:27:44.050Z,46.88
2023-05-10T05:30:11.331Z,46.31
2023-05-10T05:32:38.337Z,45.55
2023-05-10T05:35:06.005Z,44.68
2023-05-10T05:37:33.279Z,44.30
2023-05-10T05:40:02.283Z,43.19
2023-05-10T05:42:29.252Z,41.95
2023-05-10T05:44:56.350Z,40.43
2023-05-10T05:47:23.341Z,39.23
2023-05-10T05:49:50.318Z,38.12
2023-05-10T05:52:17.331Z,37.15
2023-05-10T05:54:44.412Z,36.37
2023-05-10T05:57:11.385Z,34.91
2023-05-10T05:59:42.979Z,33.36
2023-05-10T06:02:10.280Z,32.64
2023-05-10T06:04:37.440Z,32.29
2023-05-10T06:07:04.460Z,31.75
2023-05-10T06:09:31.472Z,31.66
2023-05-10T06:11:58.484Z,31.25
2023-05-10T06:14:25.472Z,30.98
2023-05-10T06:16:52.505Z,30.28
2023-05-10T06:19:19.600Z,29.93
2023-05-10T06:21:46.542Z,29.20
2023-05-10T06:24:13.513Z,28.24
2023-05-10T06:26:40.665Z,28.67
2023-05-10T06:29:07.624Z,28.96
2023-05-10T06:31:34.721Z,29.00
2023-05-10T06:34:01.759Z,28.83
2023-05-10T06:36:28.726Z,29.40
2023-05-10T06:38:55.963Z,28.69
2023-05-10T06:41:24.722Z,27.57
2023-05-10T06:43:51.901Z,27.55
2023-05-10T06:46:18.931Z,27.58
2023-05-10T06:48:45.930Z,27.48
2023-05-10T06:51:12.940Z,27.93
2023-05-10T06:53:39.883Z,28.13
2023-05-10T06:56:07.021Z,28.44
2023-05-10T06:58:34.025Z,28.66
2023-05-10T07:01:05.284Z,28.28
2023-05-10T07:03:32.521Z,27.48
2023-05-10T07:06:06.176Z,27.00
2023-05-10T07:08:33.180Z,26.79
2023-05-10T07:11:04.453Z,26.83
2023-05-10T07:13:32.443Z,26.35
2023-05-10T07:16:00.214Z,25.61
2023-05-10T07:18:27.429Z,25.35
2023-05-10T07:20:54.574Z,26.71
2023-05-10T07:23:21.624Z,27.09
2023-05-10T07:25:49.244Z,27.54
2023-05-10T07:28:16.540Z,27.72
2023-05-10T07:30:43.558Z,27.19
2023-05-10T07:33:11.328Z,27.20
2023-05-10T07:35:38.424Z,26.77
2023-05-10T07:38:05.373Z,27.13
2023-05-10T07:40:32.452Z,26.49
2023-05-10T07:42:59.717Z,26.20
2023-05-10T07:45:26.761Z,26.61
2023-05-10T07:47:53.925Z,26.67
2023-05-10T07:50:22.247Z,26.74
2023-05-10T07:52:49.361Z,26.20
2023-05-10T07:55:16.902Z,26.12
2023-05-10T07:57:44.134Z,26.38
2023-05-10T08:00:13.887Z,27.30
2023-05-10T08:02:41.276Z,27.11
2023-05-10T08:05:08.907Z,27.65
2023-05-10T08:07:35.868Z,28.27
2023-05-10T08:10:03.854Z,29.00
2023-05-10T08:12:31.452Z,29.22
2023-05-10T08:14:58.907Z,29.73
2023-05-10T08:17:25.951Z,29.63
2023-05-10T08:19:52.986Z,29.60
2023-05-10T08:22:19.928Z,29.14
2023-05-10T08:24:46.880Z,29.00
2023-05-10T08:27:13.845Z,28.51
2023-05-10T08:29:49.397Z,28.77
2023-05-10T08:32:18.017Z,28.21
2023-05-10T08:34:44.985Z,28.05
2023-05-10T08:37:14.448Z,28.22
2023-05-10T08:39:41.833Z,28.32
2023-05-10T08:42:09.441Z,28.56
2023-05-10T08:44:37.760Z,28.59
2023-05-10T08:47:08.505Z,28.64
2023-05-10T08:49:35.946Z,29.16
2023-05-10T08:52:05.161Z,29.24
2023-05-10T08:54:35.490Z,29.93
2023-05-10T08:57:02.746Z,30.37
2023-05-10T08:59:29.873Z,30.72
2023-05-10T09:02:00.625Z,30.77
2023-05-10T09:04:27.848Z,30.85
2023-05-10T09:06:55.082Z,30.41
2023-05-10T09:09:22.276Z,30.44
2023-05-10T09:11:49.237Z,30.39
2023-05-10T09:14:16.270Z,30.23
2023-05-10T09:16:43.272Z,30.06
2023-05-10T09:19:10.501Z,30.17
2023-05-10T09:21:40.366Z,30.50
2023-05-10T09:24:08.273Z,31.18
2023-05-10T09:26:36.768Z,30.66
2023-05-10T09:29:04.121Z,30.16
2023-05-10T09:31:55.743Z,29.83
2023-05-10T09:34:32.203Z,29.65
2023-05-10T09:37:02.101Z,29.09
2023-05-10T09:39:36.674Z,28.70
2023-05-10T09:42:08.179Z,28.24
2023-05-10T09:44:35.241Z,28.15
2023-05-10T09:47:02.785Z,27.99
2023-05-10T09:49:29.842Z,29.41
2023-05-10T09:52:09.322Z,30.66
2023-05-10T09:54:37.097Z,31.59
2023-05-10T09:57:04.547Z,31.77
2023-05-10T09:59:32.459Z,31.93
2023-05-10T10:01:59.839Z,32.19
2023-05-10T10:04:27.062Z,32.14
2023-05-10T10:07:01.866Z,32.38
2023-05-10T10:09:28.949Z,32.21
2023-05-10T10:11:56.370Z,32.03
2023-05-10T10:14:26.356Z,31.53
2023-05-10T10:17:06.557Z,31.00
2023-05-10T10:19:36.427Z,30.61
2023-05-10T10:22:04.022Z,30.29
2023-05-10T10:24:31.082Z,29.76
2023-05-10T10:27:05.869Z,29.73
2023-05-10T10:29:38.277Z,29.39
2023-05-10T10:32:11.262Z,29.26
2023-05-10T10:34:38.211Z,29.34
2023-05-10T10:37:05.995Z,29.49
2023-05-10T10:39:33.028Z,29.98
2023-05-10T10:42:00.169Z,29.64
2023-05-10T10:44:34.989Z,29.16
2023-05-10T10:47:24.314Z,29.29
2023-05-10T10:49:53.144Z,29.07
2023-05-10T10:52:34.388Z,29.06
2023-05-10T10:55:12.399Z,29.06
2023-05-10T10:57:42.602Z,28.91
2023-05-10T11:00:25.878Z,30.32
2023-05-10T11:02:53.699Z,30.92
2023-05-10T11:05:29.671Z,30.56
2023-05-10T11:07:57.750Z,30.58
2023-05-10T11:10:25.346Z,30.47
2023-05-10T11:13:11.592Z,29.40
2023-05-10T11:15:40.048Z,28.52
2023-05-10T11:18:22.275Z,29.00
2023-05-10T11:20:53.107Z,29.81
2023-05-10T11:23:21.284Z,30.51
2023-05-10T11:25:48.942Z,30.69
2023-05-10T11:28:16.169Z,30.83
2023-05-10T11:30:44.477Z,30.75
2023-05-10T11:33:16.485Z,30.94
2023-05-10T11:35:43.862Z,31.01
2023-05-10T11:38:11.460Z,31.15
2023-05-10T11:40:38.843Z,31.20
2023-05-10T11:43:06.728Z,31.15
2023-05-10T11:45:34.251Z,31.27
2023-05-10T11:48:01.418Z,31.45
2023-05-10T11:50:28.429Z,31.82
2023-05-10T11:52:56.358Z,32.61
2023-05-10T11:55:23.813Z,33.01
2023-05-10T11:57:54.909Z,33.10
2023-05-10T12:00:22.399Z,33.03
2023-05-10T12:02:49.746Z,32.92
2023-05-10T12:05:16.819Z,32.79
2023-05-10T12:07:43.932Z,32.56
2023-05-10T12:10:11.682Z,32.45
2023-05-10T12:12:39.388Z,32.36
2023-05-10T12:15:07.783Z,32.33
2023-05-10T12:17:34.814Z,32.28
2023-05-10T12:20:16.337Z,32.20
2023-05-10T12:22:58.325Z,32.32
2023-05-10T12:25:31.372Z,33.19
2023-05-10T12:27:59.286Z,33.33
2023-05-10T12:30:27.766Z,33.01
2023-05-10T12:32:55.025Z,33.55
2023-05-10T12:35:23.013Z,33.10
2023-05-10T12:37:50.093Z,33.60
2023-05-10T12:40:17.220Z,33.75
2023-05-10T12:42:46.087Z,33.90
2023-05-10T12:45:13.309Z,33.65
2023-05-10T12:47:43.080Z,32.89
2023-05-10T12:50:11.573Z,32.74
2023-05-10T12:52:38.570Z,32.25
2023-05-10T12:55:05.838Z,31.72
2023-05-10T12:57:32.877Z,31.20
2023-05-10T12:59:59.887Z,30.89
2023-05-10T13:02:27.292Z,31.54
2023-05-10T13:04:54.414Z,31.67
2023-05-10T13:07:21.432Z,31.65
2023-05-10T13:09:48.391Z,31.69
2023-05-10T13:12:15.384Z,31.77
2023-05-10T13:14:42.487Z,31.23
2023-05-10T13:17:09.593Z,31.29
2023-05-10T13:19:36.694Z,31.41
2023-05-10T13:22:03.937Z,31.34
2023-05-10T13:24:31.344Z,31.30
2023-05-10T13:26:59.329Z,30.77
2023-05-10T13:29:26.331Z,30.34
2023-05-10T13:31:53.378Z,29.75
2023-05-10T13:34:21.757Z,29.81
2023-05-10T13:36:49.151Z,29.98
2023-05-10T13:39:16.297Z,30.13
2023-05-10T13:41:43.333Z,30.13
2023-05-10T13:44:10.344Z,30.16
2023-05-10T13:46:37.407Z,30.48
2023-05-10T13:49:04.447Z,30.31
2023-05-10T13:51:32.760Z,30.41
2023-05-10T13:53:59.805Z,30.30
2023-05-10T13:56:26.755Z,30.31
2023-05-10T13:58:54.021Z,30.43
2023-05-10T14:01:21.147Z,30.38
2023-05-10T14:03:48.342Z,30.22
2023-05-10T14:06:15.521Z,30.10
2023-05-10T14:08:42.852Z,29.82
2023-05-10T14:11:09.968Z,29.43
2023-05-10T14:13:36.962Z,29.33
2023-05-10T14:16:04.655Z,29.22
2023-05-10T14:18:31.945Z,29.23
2023-05-10T14:20:58.948Z,29.02
2023-05-10T14:23:26.061Z,28.94
2023-05-10T14:25:53.590Z,28.87
2023-05-10T14:28:21.843Z,28.53
2023-05-10T14:30:48.942Z,28.48
2023-05-10T14:33:16.075Z,28.48
2023-05-10T14:35:43.093Z,28.37
2023-05-10T14:38:10.264Z,28.53
2023-05-10T14:40:37.431Z,28.46
2023-05-10T14:43:04.381Z,28.11
2023-05-10T14:45:31.577Z,28.30
2023-05-10T14:47:58.844Z,28.27
2023-05-10T14:53:00.147Z,28.31
2023-05-10T14:55:27.238Z,28.21
2023-05-10T14:57:54.422Z,28.09
2023-05-10T15:00:22.063Z,28.18
2023-05-10T15:02:49.792Z,28.22
2023-05-10T15:05:17.940Z,28.20
2023-05-10T15:07:45.493Z,28.36
2023-05-10T15:10:12.691Z,28.56
2023-05-10T15:12:39.703Z,28.66
2023-05-10T15:15:07.543Z,28.67
2023-05-10T15:17:35.079Z,28.80
2023-05-10T15:20:04.620Z,29.09
2023-05-10T15:22:34.312Z,28.99
2023-05-10T15:25:01.539Z,29.08
2023-05-10T15:27:28.610Z,28.56
2023-05-10T15:29:56.386Z,28.34
2023-05-10T15:32:23.416Z,28.60
2023-05-10T15:34:50.398Z,28.90
2023-05-10T15:37:17.368Z,29.37
2023-05-10T15:39:45.116Z,30.76
2023-05-10T15:42:12.270Z,31.70
2023-05-10T15:44:39.739Z,32.17
2023-05-10T15:47:07.077Z,31.91
2023-05-10T15:49:34.330Z,32.65
2023-05-10T15:52:01.349Z,34.54
2023-05-10T15:54:28.595Z,35.05
2023-05-10T15:56:55.672Z,35.50
2023-05-10T15:59:22.701Z,36.16
2023-05-10T16:01:50.425Z,36.75
2023-05-10T16:04:17.498Z,36.88
2023-05-10T16:06:44.531Z,36.83
2023-05-10T16:09:11.514Z,36.74
2023-05-10T16:11:38.486Z,36.73
2023-05-10T16:14:07.264Z,36.89
2023-05-10T16:16:34.888Z,37.14
2023-05-10T16:19:03.876Z,37.67
2023-05-10T16:21:32.854Z,37.91
2023-05-10T16:24:03.102Z,38.11
2023-05-10T16:26:30.086Z,38.64
2023-05-10T16:28:57.145Z,39.06
2023-05-10T16:31:24.684Z,39.57
2023-05-10T16:33:51.867Z,40.03
2023-05-10T16:36:18.846Z,40.14
2023-05-10T16:38:45.929Z,40.65
2023-05-10T16:41:12.935Z,41.39
2023-05-10T16:43:40.054Z,41.77
2023-05-10T16:46:11.006Z,40.78
2023-05-10T16:48:38.313Z,40.31
2023-05-10T16:51:05.277Z,40.18
2023-05-10T16:53:32.734Z,40.23
2023-05-10T16:55:59.830Z,40.28
2023-05-10T16:58:27.015Z,40.25
2023-05-10T17:00:53.969Z,40.41
2023-05-10T17:03:21.211Z,40.82
2023-05-10T17:05:48.656Z,40.84
2023-05-10T17:08:16.294Z,41.22
2023-05-10T17:10:43.345Z,41.48
2023-05-10T17:13:10.713Z,41.77
2023-05-10T17:15:38.731Z,41.99
2023-05-10T17:18:07.181Z,42.23
2023-05-10T17:20:34.602Z,42.45
2023-05-10T17:23:03.408Z,42.57
2023-05-10T17:25:30.493Z,42.67
2023-05-10T17:27:57.495Z,42.76
2023-05-10T17:30:27.671Z,42.83
2023-05-10T17:32:54.869Z,42.99
2023-05-10T17:35:21.872Z,43.24
2023-05-10T17:37:48.901Z,43.23
2023-05-10T17:40:15.936Z,43.13
2023-05-10T17:42:42.939Z,43.44
2023-05-10T17:45:10.683Z,43.68
2023-05-10T17:47:38.118Z,43.81
2023-05-10T17:50:06.215Z,44.07
2023-05-10T17:52:33.722Z,44.11
2023-05-10T17:55:01.135Z,44.24
2023-05-10T17:57:28.264Z,44.56
2023-05-10T17:59:55.241Z,44.47
2023-05-10T18:02:22.238Z,44.55
2023-05-10T18:04:49.609Z,44.74
2023-05-10T18:07:16.808Z,44.91
2023-05-10T18:09:43.858Z,45.13
2023-05-10T18:12:10.947Z,45.29
2023-05-10T18:14:41.085Z,45.39
2023-05-10T18:17:09.635Z,45.33
2023-05-10T18:19:36.975Z,45.50
2023-05-10T18:22:04.375Z,45.58
2023-05-10T18:24:38.470Z,45.60
2023-05-10T18:27:10.396Z,45.48
2023-05-10T18:29:37.786Z,45.62
2023-05-10T18:32:05.045Z,45.62
2023-05-10T18:34:32.011Z,45.86
2023-05-10T18:36:59.583Z,45.98
2023-05-10T18:39:26.572Z,46.25
2023-05-10T18:41:53.642Z,46.46
2023-05-10T18:44:22.061Z,46.60
2023-05-10T18:46:49.162Z,46.73
2023-05-10T18:49:16.493Z,46.89
2023-05-10T18:51:43.718Z,47.11
2023-05-10T18:54:11.034Z,47.04
2023-05-10T18:56:40.222Z,47.07
2023-05-10T18:59:07.294Z,47.22
2023-05-10T19:01:34.313Z,47.35
2023-05-10T19:04:01.417Z,47.38
2023-05-10T19:06:28.466Z,47.43
2023-05-10T19:08:55.525Z,47.66
2023-05-10T19:11:22.842Z,47.82
2023-05-10T19:13:49.946Z,48.06
2023-05-10T19:16:23.053Z,48.16
2023-05-10T19:18:51.792Z,48.44
2023-05-10T19:21:18.891Z,48.58
2023-05-10T19:23:46.029Z,48.76
2023-05-10T19:26:13.178Z,48.83
2023-05-10T19:28:40.142Z,48.79
2023-05-10T19:31:08.545Z,49.02
2023-05-10T19:33:38.982Z,49.16
2023-05-10T19:36:07.377Z,49.32
2023-05-10T19:38:34.417Z,49.36
2023-05-10T19:41:01.420Z,49.50
2023-05-10T19:43:31.227Z,49.71
2023-05-10T19:46:00.054Z,49.85
2023-05-10T19:48:27.165Z,50.00
2023-05-10T19:50:54.417Z,49.95
2023-05-10T19:53:21.385Z,49.76
2023-05-10T19:55:48.623Z,49.52
2023-05-10T19:58:15.686Z,49.25
2023-05-10T20:00:42.677Z,49.01
2023-05-10T20:03:09.729Z,49.01
2023-05-10T20:05:36.796Z,49.00
2023-05-10T20:08:03.819Z,48.99
2023-05-10T20:10:30.867Z,49.03
2023-05-10T20:12:58.891Z,49.05
2023-05-10T20:15:26.054Z,49.14
2023-05-10T20:17:53.870Z,49.28
2023-05-10T20:20:21.202Z,49.68
2023-05-10T20:22:48.587Z,49.32
2023-05-10T20:25:16.059Z,48.86
2023-05-10T20:27:43.135Z,48.66
2023-05-10T20:30:10.596Z,48.60
2023-05-10T20:32:37.910Z,48.79
2023-05-10T20:35:05.789Z,49.02
2023-05-10T20:37:32.974Z,48.90
2023-05-10T20:40:00.017Z,49.00
2023-05-10T20:42:27.243Z,49.21
2023-05-10T20:44:54.232Z,49.34
2023-05-10T20:47:23.440Z,49.57
2023-05-10T20:49:50.508Z,49.75
2023-05-10T20:52:17.467Z,50.07
2023-05-10T20:54:44.411Z,50.33
2023-05-10T20:57:14.662Z,50.68
2023-05-10T20:59:41.685Z,50.96
2023-05-10T21:02:08.796Z,50.96
2023-05-10T21:04:35.804Z,50.99
2023-05-10T21:07:02.771Z,50.99
2023-05-10T21:09:29.816Z,50.96
2023-05-10T21:11:56.815Z,50.96
2023-05-10T21:14:23.863Z,50.87
2023-05-10T21:16:51.472Z,50.86
2023-05-10T21:19:19.151Z,50.95
2023-05-10T21:21:46.173Z,51.01
2023-05-10T21:24:13.948Z,51.22
2023-05-10T21:26:41.880Z,51.19
2023-05-10T21:29:08.945Z,51.18
2023-05-10T21:31:35.966Z,51.23
2023-05-10T21:34:02.945Z,51.21
2023-05-10T21:36:30.223Z,51.27
2023-05-10T21:38:57.229Z,51.32
2023-05-10T21:41:24.246Z,51.31
2023-05-10T21:43:51.314Z,51.29
2023-05-10T21:46:18.375Z,51.15
2023-05-10T21:48:45.567Z,51.08
2023-05-10T21:51:12.707Z,50.87
2023-05-10T21:53:39.682Z,50.76
2023-05-10T21:56:07.459Z,50.65
2023-05-10T21:58:34.634Z,50.69
2023-05-10T22:01:01.715Z,50.59
2023-05-10T22:03:28.785Z,50.66
2023-05-10T22:05:55.803Z,50.77
2023-05-10T22:08:22.762Z,50.96
2023-05-10T22:10:50.344Z,51.01
2023-05-10T22:13:17.358Z,51.25
2023-05-10T22:15:44.517Z,51.32
2023-05-10T22:18:11.510Z,51.34
2023-05-10T22:20:38.520Z,51.34
2023-05-10T22:23:05.638Z,51.25
2023-05-10T22:25:32.717Z,51.15
2023-05-10T22:27:59.649Z,51.06
2023-05-10T22:30:26.637Z,51.14
2023-05-10T22:32:53.717Z,51.24
2023-05-10T22:35:21.172Z,51.28
2023-05-10T22:37:48.228Z,51.37
2023-05-10T22:40:15.471Z,51.43
2023-05-10T22:42:42.513Z,51.55
2023-05-10T22:45:09.983Z,51.79
2023-05-10T22:47:36.998Z,51.91
2023-05-10T22:50:04.493Z,52.01
2023-05-10T22:52:31.477Z,51.99
2023-05-10T22:54:58.415Z,52.04
2023-05-10T22:57:25.845Z,51.89
2023-05-10T22:59:52.819Z,51.83
2023-05-10T23:02:19.850Z,51.96
2023-05-10T23:04:47.169Z,51.95
2023-05-10T23:07:14.209Z,52.20
2023-05-10T23:09:41.176Z,52.47
2023-05-10T23:12:08.381Z,52.76
2023-05-10T23:14:35.428Z,52.93
2023-05-10T23:17:02.423Z,53.07
2023-05-10T23:19:29.369Z,53.24
2023-05-10T23:21:56.387Z,53.22
2023-05-10T23:24:23.358Z,53.30
2023-05-10T23:26:50.529Z,53.38
2023-05-10T23:29:17.678Z,53.41
2023-05-10T23:31:48.812Z,53.33
2023-05-10T23:34:15.769Z,53.30
2023-05-10T23:36:42.909Z,53.50
2023-05-10T23:39:09.942Z,53.55
2023-05-10T23:41:36.888Z,53.59
2023-05-10T23:44:04.021Z,53.65
2023-05-10T23:46:31.008Z,53.64
2023-05-10T23:48:57.960Z,53.72
2023-05-10T23:51:25.036Z,53.70
2023-05-10T23:53:51.996Z,53.73
2023-05-10T23:56:19.031Z,53.80
2023-05-10T23:58:46.529Z,53.81
